»·PEaware :: PH-KIM KSAN-KSBA

PH-KIM :: KSAN-KSBA

FLIGHT INFORMATION

Flight Status: Arrived
Operator: Privately registered:
Netherlands
More flights under this callsign
Pilot: Kim B. (19519)
Aircraft: ECLIPSE 500
(EA50)
More flights by this aircraft type
Origin: KSAN San Diego Intl-Lindbergh
United States
Destination: KSBA Santa Barbara Mun
United States
More flights between these airports :: More routes between these airports
Route: CWARD2 CWARD AVOLS V208 VTU VTU282 KWANG
File this flight plan on PilotEdge
Remarks:
Altitude:
(Current/Filed)
10,000ft
Speed:
(Current/Filed)
250kts
Departed: 12-Sep-18 06:40 PM
Arrived: 12-Sep-18 08:01 PM
Distance/Time
Traveled:
167nm/1:21
Distance/Time
To Go:
Arrived

Flight Plot

Page will automatically refresh every two minutes.

Flight plan parsing failed; only flown route is shown


Map Options




Map Legend


Flown Route
Filed Route
Departure Airport
Arrival Airport
Navaid (VOR, NDB)
Fix

Horizontal Profiles

Position Reports

Time Latitude Longitude Heading Altitude Ground
Speed
12-Sep-18 18:25 32.734272 -117.185249 196 16ft 0kts
12-Sep-18 18:26 32.734272 -117.185249 196 16ft 0kts
12-Sep-18 18:27 32.734272 -117.185249 196 16ft 0kts
12-Sep-18 18:28 32.734272 -117.185249 196 16ft 0kts
12-Sep-18 18:29 32.734272 -117.185249 196 16ft 0kts
12-Sep-18 18:30 32.734272 -117.185249 196 16ft 0kts
12-Sep-18 18:31 32.734272 -117.185249 196 16ft 0kts
12-Sep-18 18:32 32.734272 -117.185249 196 16ft 0kts
12-Sep-18 18:33 32.734272 -117.185249 196 16ft 0kts
12-Sep-18 18:34 32.734272 -117.185249 196 16ft 0kts
12-Sep-18 18:35 32.734272 -117.185249 196 16ft 0kts
12-Sep-18 18:36 32.734272 -117.185249 196 16ft 0kts
12-Sep-18 18:37 32.734272 -117.185249 196 16ft 0kts
12-Sep-18 18:38 32.733865 -117.185392 193 16ft 8kts
12-Sep-18 18:39 32.732412 -117.180219 107 17ft 11kts
12-Sep-18 18:40 32.731348 -117.176692 157 19ft 13kts
12-Sep-18 18:41 32.731241 -117.176647 163 19ft 0kts
12-Sep-18 18:42 32.731000 -117.179279 285 16ft 43kts
12-Sep-18 18:43 32.744254 -117.231030 286 309ft 223kts
12-Sep-18 18:44 32.759476 -117.290273 286 686ft 182kts
12-Sep-18 18:45 32.770335 -117.331512 282 1929ft 80kts
12-Sep-18 18:46 32.768247 -117.324528 33 558ft 149kts
12-Sep-18 18:47 32.772847 -117.334956 203 1196ft 91kts
12-Sep-18 18:48 32.767452 -117.325806 44 24ft 189kts
12-Sep-18 18:58 32.734272 -117.185249 196 16ft 0kts
12-Sep-18 18:59 32.734272 -117.185249 196 16ft 0kts
12-Sep-18 19:00 32.734272 -117.185249 196 16ft 0kts
12-Sep-18 19:01 32.734251 -117.185256 196 16ft 0kts
12-Sep-18 19:02 32.733265 -117.183666 105 16ft 15kts
12-Sep-18 19:03 32.732547 -117.181861 176 15ft 0kts
12-Sep-18 19:04 32.731930 -117.182240 243 13ft 12kts
12-Sep-18 19:05 32.737354 -117.205487 286 143ft 137kts
12-Sep-18 19:06 32.749328 -117.242126 305 952ft 150kts
12-Sep-18 19:07 32.770978 -117.258448 346 1893ft 142kts
12-Sep-18 19:08 32.790545 -117.270325 287 2810ft 140kts
12-Sep-18 19:09 32.800664 -117.303768 290 3812ft 159kts
12-Sep-18 19:10 32.807457 -117.317842 300 4277ft 167kts
12-Sep-18 19:11 32.834631 -117.366579 303 5154ft 179kts
12-Sep-18 19:12 32.864916 -117.416799 305 5953ft 191kts
12-Sep-18 19:13 32.892591 -117.461150 305 6644ft 193kts
12-Sep-18 19:14 32.925084 -117.512434 305 7438ft 196kts
12-Sep-18 19:15 32.958175 -117.564308 305 8232ft 198kts
12-Sep-18 19:16 32.991504 -117.616399 305 9024ft 198kts
12-Sep-18 19:17 33.026011 -117.670341 304 9826ft 209kts
12-Sep-18 19:18 33.061631 -117.725602 309 9999ft 210kts
12-Sep-18 19:19 33.105732 -117.771353 313 10003ft 210kts
12-Sep-18 19:20 33.151892 -117.818776 314 10011ft 237kts
12-Sep-18 19:21 33.209863 -117.863151 341 10013ft 266kts
12-Sep-18 19:22 33.283918 -117.883387 342 10014ft 278kts
12-Sep-18 19:23 33.358056 -117.907796 313 9997ft 268kts
12-Sep-18 19:24 33.369857 -117.989916 267 10010ft 256kts
12-Sep-18 19:25 33.366021 -118.074572 263 10018ft 254kts
12-Sep-18 19:26 33.359286 -118.158918 262 10027ft 254kts
12-Sep-18 19:27 33.352642 -118.237711 271 10030ft 260kts
12-Sep-18 19:28 33.363061 -118.323852 276 10000ft 262kts
12-Sep-18 19:29 33.372651 -118.399245 276 9997ft 262kts
12-Sep-18 19:30 33.414109 -118.472654 304 9996ft 270kts
12-Sep-18 19:31 33.461345 -118.541641 305 9996ft 271kts
12-Sep-18 19:32 33.509637 -118.611117 305 9996ft 271kts
12-Sep-18 19:33 33.557349 -118.679635 305 10001ft 271kts
12-Sep-18 19:34 33.605653 -118.748909 305 10001ft 270kts
12-Sep-18 19:35 33.653950 -118.818258 305 9986ft 272kts
12-Sep-18 19:36 33.702297 -118.887821 306 9970ft 272kts
12-Sep-18 19:37 33.750743 -118.957615 306 9962ft 273kts
12-Sep-18 19:38 33.804114 -119.011506 347 9964ft 285kts
12-Sep-18 19:39 33.882791 -119.023555 350 9963ft 286kts
12-Sep-18 19:40 33.960015 -119.032771 351 9999ft 286kts
12-Sep-18 19:41 34.038758 -119.041377 351 9999ft 285kts
12-Sep-18 19:42 34.111888 -119.064626 303 9995ft 272kts
12-Sep-18 19:43 34.144844 -119.129196 297 9306ft 269kts
12-Sep-18 19:44 34.185527 -119.220012 296 7906ft 254kts
12-Sep-18 19:45 34.216780 -119.293267 296 6696ft 243kts
12-Sep-18 19:46 34.242060 -119.353385 296 5777ft 240kts
12-Sep-18 19:47 34.272105 -119.425256 295 4783ft 238kts
12-Sep-18 19:48 34.305735 -119.509558 277 3982ft 238kts
12-Sep-18 19:49 34.302943 -119.575515 264 3982ft 225kts
12-Sep-18 19:50 34.298107 -119.647533 263 4001ft 219kts
12-Sep-18 19:51 34.292570 -119.721481 262 4000ft 223kts
12-Sep-18 19:52 34.286685 -119.796695 262 3999ft 225kts
12-Sep-18 19:53 34.280690 -119.871839 262 3999ft 225kts
12-Sep-18 19:54 34.274606 -119.947108 262 3999ft 224kts
12-Sep-18 19:55 34.268541 -120.021384 262 3704ft 214kts
12-Sep-18 19:56 34.285589 -120.079677 351 3514ft 210kts
12-Sep-18 19:57 34.343241 -120.085085 356 3518ft 208kts
12-Sep-18 19:58 34.401093 -120.086736 11 3512ft 208kts
12-Sep-18 19:59 34.422252 -120.026648 86 2777ft 194kts
12-Sep-18 20:00 34.424792 -119.970715 88 1897ft 157kts
12-Sep-18 20:01 34.426123 -119.919077 89 1074ft 151kts
12-Sep-18 20:02 34.427201 -119.871023 89 315ft 119kts
12-Sep-18 20:03 34.427729 -119.842380 84 13ft 24kts
12-Sep-18 20:04 34.427087 -119.841496 167 13ft 0kts
12-Sep-18 20:05 34.427038 -119.841483 167 13ft 2kts
12-Sep-18 20:06 34.427575 -119.838696 338 11ft 0kts
12-Sep-18 20:07 34.427595 -119.838705 339 11ft 3kts
12-Sep-18 20:08 34.431672 -119.836549 68 13ft 12kts
12-Sep-18 20:09 34.432834 -119.835688 310 13ft 9kts
12-Sep-18 20:10 34.432803 -119.836066 158 13ft 0kts
12-Sep-18 20:11 34.432803 -119.836066 158 13ft 0kts
12-Sep-18 20:12 34.432803 -119.836066 158 13ft 0kts
12-Sep-18 20:13 34.432803 -119.836066 158 13ft 0kts
12-Sep-18 20:14 34.432803 -119.836066 158 13ft 0kts
12-Sep-18 20:15 34.432803 -119.836066 158 13ft 0kts
12-Sep-18 20:16 34.432803 -119.836066 158 13ft 0kts
12-Sep-18 20:17 34.432803 -119.836066 158 13ft 0kts
12-Sep-18 20:18 34.432803 -119.836066 158 13ft 0kts

Navigation Log

Ident Type
Flight plan parsing failed, navigation log unavailable